VIV3278 MMGL-MMMX
Flight info
| Callsign | VIV3278 |
|---|---|
| Flight time | 0h 52m |
| Altitude | 33000 |
| Route | EMIRI1B EMIRI UT119 ESPOS ESPOS3A |
| Aircraft | A320/M-SDE1GIRWY/LB1 |
Departure
| Time | 2026-05-06 03:34 |
|---|---|
| Airport | Guadalajara International Airport (MMGL) |
Arrival
| Time | 2026-05-06 04:26 |
|---|---|
| Airport | Mexico City Benito Juárez International Airport (MMMX) |
| Time | Latitude | Longitude | Altitude | Speed | Heading |
|---|---|---|---|---|---|
| 2026-05-06 03:07 | 20.52323 | -103.30135 | 5020 ft | 0 kts | 199° |
| 2026-05-06 03:24 | 20.52338 | -103.30130 | 5018 ft | 4 kts | 193° |
| 2026-05-06 03:24 | 20.52364 | -103.30127 | 5017 ft | 4 kts | 168° |
| 2026-05-06 03:25 | 20.52385 | -103.30138 | 5017 ft | 3 kts | 111° |
| 2026-05-06 03:25 | 20.52388 | -103.30145 | 5017 ft | 0 kts | 109° |
| 2026-05-06 03:28 | 20.52382 | -103.30128 | 5017 ft | 5 kts | 109° |
| 2026-05-06 03:28 | 20.52365 | -103.30077 | 5020 ft | 10 kts | 109° |
| 2026-05-06 03:29 | 20.52325 | -103.30029 | 5020 ft | 11 kts | 171° |
| 2026-05-06 03:29 | 20.52242 | -103.30056 | 5020 ft | 15 kts | 199° |
| 2026-05-06 03:29 | 20.52161 | -103.30085 | 5020 ft | 10 kts | 193° |
| 2026-05-06 03:29 | 20.52111 | -103.30030 | 5020 ft | 14 kts | 110° |
| 2026-05-06 03:30 | 20.52074 | -103.29919 | 5018 ft | 18 kts | 109° |
| 2026-05-06 03:30 | 20.52014 | -103.29820 | 5020 ft | 17 kts | 124° |
| 2026-05-06 03:30 | 20.51934 | -103.29704 | 5018 ft | 22 kts | 126° |
| 2026-05-06 03:30 | 20.51850 | -103.29580 | 5017 ft | 16 kts | 124° |
| 2026-05-06 03:31 | 20.51831 | -103.29554 | 5019 ft | 0 kts | 129° |
| 2026-05-06 03:31 | 20.51829 | -103.29552 | 5019 ft | 0 kts | 129° |
| 2026-05-06 03:31 | 20.51822 | -103.29540 | 5020 ft | 3 kts | 123° |
| 2026-05-06 03:32 | 20.51797 | -103.29504 | 5020 ft | 9 kts | 126° |
| 2026-05-06 03:32 | 20.51751 | -103.29437 | 5020 ft | 14 kts | 126° |
| 2026-05-06 03:32 | 20.51685 | -103.29341 | 5020 ft | 18 kts | 126° |
| 2026-05-06 03:32 | 20.51611 | -103.29234 | 5020 ft | 15 kts | 127° |
| 2026-05-06 03:33 | 20.51536 | -103.29216 | 5020 ft | 14 kts | 204° |
| 2026-05-06 03:33 | 20.51471 | -103.29248 | 5020 ft | 0 kts | 205° |
| 2026-05-06 03:33 | 20.51453 | -103.29257 | 5020 ft | 5 kts | 205° |
| 2026-05-06 03:33 | 20.51424 | -103.29292 | 5020 ft | 8 kts | 258° |
| 2026-05-06 03:34 | 20.51449 | -103.29367 | 5021 ft | 21 kts | 294° |
| 2026-05-06 03:34 | 20.51650 | -103.29844 | 5022 ft | 114 kts | 294° |
| 2026-05-06 03:34 | 20.52065 | -103.30848 | 5029 ft | 178 kts | 291° |
| 2026-05-06 03:34 | 20.52553 | -103.32100 | 5903 ft | 183 kts | 290° |
| 2026-05-06 03:35 | 20.53056 | -103.33373 | 6696 ft | 191 kts | 292° |
| 2026-05-06 03:35 | 20.53614 | -103.34722 | 7198 ft | 208 kts | 293° |
| 2026-05-06 03:35 | 20.54231 | -103.36211 | 7469 ft | 232 kts | 293° |
| 2026-05-06 03:35 | 20.54919 | -103.37870 | 7903 ft | 257 kts | 293° |
| 2026-05-06 03:36 | 20.55669 | -103.39683 | 8519 ft | 274 kts | 294° |
| 2026-05-06 03:36 | 20.56449 | -103.41573 | 9403 ft | 282 kts | 293° |
| 2026-05-06 03:36 | 20.57245 | -103.43512 | 10260 ft | 292 kts | 292° |
| 2026-05-06 03:36 | 20.58085 | -103.45572 | 10665 ft | 315 kts | 292° |
| 2026-05-06 03:37 | 20.58981 | -103.47769 | 11300 ft | 328 kts | 292° |
| 2026-05-06 03:37 | 20.59724 | -103.50093 | 12042 ft | 334 kts | 277° |
| 2026-05-06 03:37 | 20.59681 | -103.52576 | 12813 ft | 337 kts | 256° |
| 2026-05-06 03:37 | 20.58830 | -103.54900 | 13601 ft | 339 kts | 235° |
| 2026-05-06 03:38 | 20.57257 | -103.56758 | 14385 ft | 339 kts | 215° |
| 2026-05-06 03:38 | 20.55169 | -103.57895 | 15158 ft | 340 kts | 195° |
| 2026-05-06 03:38 | 20.52820 | -103.58187 | 15932 ft | 343 kts | 176° |
| 2026-05-06 03:38 | 20.50500 | -103.57569 | 16718 ft | 350 kts | 156° |
| 2026-05-06 03:39 | 20.48485 | -103.56054 | 17318 ft | 364 kts | 135° |
| 2026-05-06 03:39 | 20.46925 | -103.53877 | 17937 ft | 374 kts | 127° |
| 2026-05-06 03:39 | 20.45402 | -103.51597 | 18623 ft | 380 kts | 128° |
| 2026-05-06 03:39 | 20.43859 | -103.49290 | 19318 ft | 383 kts | 128° |
| 2026-05-06 03:40 | 20.42303 | -103.46972 | 20049 ft | 386 kts | 128° |
| 2026-05-06 03:40 | 20.40729 | -103.44637 | 20764 ft | 389 kts | 128° |
| 2026-05-06 03:40 | 20.39139 | -103.42290 | 21468 ft | 392 kts | 129° |
| 2026-05-06 03:40 | 20.37537 | -103.39931 | 22231 ft | 393 kts | 129° |
| 2026-05-06 03:41 | 20.35924 | -103.37562 | 22957 ft | 397 kts | 129° |
| 2026-05-06 03:41 | 20.34293 | -103.35172 | 23667 ft | 401 kts | 129° |
| 2026-05-06 03:41 | 20.32656 | -103.32768 | 24252 ft | 405 kts | 129° |
| 2026-05-06 03:41 | 20.30994 | -103.30322 | 24806 ft | 410 kts | 129° |
| 2026-05-06 03:42 | 20.29306 | -103.27837 | 25398 ft | 415 kts | 129° |
| 2026-05-06 03:42 | 20.27616 | -103.25347 | 25968 ft | 419 kts | 129° |
| 2026-05-06 03:42 | 20.25884 | -103.22802 | 26536 ft | 424 kts | 129° |
| 2026-05-06 03:42 | 20.24142 | -103.20244 | 27072 ft | 429 kts | 129° |
| 2026-05-06 03:43 | 20.22374 | -103.17648 | 27593 ft | 435 kts | 129° |
| 2026-05-06 03:43 | 20.20589 | -103.15030 | 28090 ft | 440 kts | 129° |
| 2026-05-06 03:43 | 20.18783 | -103.12379 | 28602 ft | 445 kts | 128° |
| 2026-05-06 03:43 | 20.16956 | -103.09696 | 29125 ft | 451 kts | 128° |
| 2026-05-06 03:44 | 20.15105 | -103.06981 | 29649 ft | 456 kts | 128° |
| 2026-05-06 03:44 | 20.13231 | -103.04232 | 30141 ft | 461 kts | 128° |
| 2026-05-06 03:44 | 20.11337 | -103.01458 | 30574 ft | 466 kts | 128° |
| 2026-05-06 03:44 | 20.09423 | -102.98660 | 31020 ft | 470 kts | 128° |
| 2026-05-06 03:45 | 20.07496 | -102.95843 | 31470 ft | 473 kts | 128° |
| 2026-05-06 03:45 | 20.05551 | -102.92999 | 31964 ft | 475 kts | 128° |
| 2026-05-06 03:45 | 20.03608 | -102.90155 | 32611 ft | 474 kts | 128° |
| 2026-05-06 03:45 | 20.01671 | -102.87323 | 33249 ft | 473 kts | 128° |
| 2026-05-06 03:46 | 19.99733 | -102.84492 | 33885 ft | 473 kts | 128° |
| 2026-05-06 03:46 | 19.97800 | -102.81669 | 34447 ft | 472 kts | 128° |
| 2026-05-06 03:46 | 19.95868 | -102.78849 | 35053 ft | 471 kts | 128° |
| 2026-05-06 03:46 | 19.93947 | -102.76046 | 35690 ft | 468 kts | 128° |
| 2026-05-06 03:47 | 19.92038 | -102.73261 | 36310 ft | 466 kts | 128° |
| 2026-05-06 03:47 | 19.90129 | -102.70478 | 36789 ft | 465 kts | 128° |
| 2026-05-06 03:47 | 19.88227 | -102.67706 | 36939 ft | 464 kts | 128° |
| 2026-05-06 03:47 | 19.86330 | -102.64945 | 36975 ft | 461 kts | 128° |
| 2026-05-06 03:48 | 19.82551 | -102.59456 | 36974 ft | 460 kts | 128° |
| 2026-05-06 03:48 | 19.79411 | -102.53550 | 36977 ft | 463 kts | 114° |
| 2026-05-06 03:49 | 19.76998 | -102.47214 | 36984 ft | 463 kts | 114° |
| 2026-05-06 03:49 | 19.74574 | -102.40875 | 36992 ft | 463 kts | 114° |
| 2026-05-06 03:50 | 19.72150 | -102.34554 | 37003 ft | 463 kts | 114° |
| 2026-05-06 03:50 | 19.69709 | -102.28225 | 37012 ft | 463 kts | 114° |
| 2026-05-06 03:51 | 19.67272 | -102.21903 | 37018 ft | 463 kts | 114° |
| 2026-05-06 03:51 | 19.64840 | -102.15581 | 37024 ft | 463 kts | 114° |
| 2026-05-06 03:52 | 19.62405 | -102.09256 | 37030 ft | 463 kts | 114° |
| 2026-05-06 03:52 | 19.59970 | -102.02941 | 37036 ft | 463 kts | 114° |
| 2026-05-06 03:53 | 19.57531 | -101.96623 | 37034 ft | 463 kts | 114° |
| 2026-05-06 03:53 | 19.55085 | -101.90317 | 37035 ft | 462 kts | 114° |
| 2026-05-06 03:54 | 19.52637 | -101.84013 | 37035 ft | 463 kts | 114° |
| 2026-05-06 03:54 | 19.50191 | -101.77706 | 37033 ft | 462 kts | 114° |
| 2026-05-06 03:55 | 19.47750 | -101.71405 | 37032 ft | 462 kts | 114° |
| 2026-05-06 03:55 | 19.45299 | -101.65105 | 37024 ft | 462 kts | 114° |
| 2026-05-06 03:56 | 19.42849 | -101.58816 | 37023 ft | 462 kts | 114° |
| 2026-05-06 03:56 | 19.40371 | -101.52483 | 37017 ft | 462 kts | 114° |
| 2026-05-06 03:57 | 19.37915 | -101.46197 | 37013 ft | 462 kts | 114° |
| 2026-05-06 03:57 | 19.35461 | -101.39907 | 36997 ft | 462 kts | 114° |
| 2026-05-06 03:58 | 19.33007 | -101.33621 | 36986 ft | 462 kts | 114° |
| 2026-05-06 03:58 | 19.30550 | -101.27337 | 36972 ft | 462 kts | 114° |
| 2026-05-06 03:59 | 19.28082 | -101.21052 | 36960 ft | 462 kts | 114° |
| 2026-05-06 03:59 | 19.25609 | -101.14776 | 36944 ft | 462 kts | 114° |
| 2026-05-06 04:00 | 19.23142 | -101.08501 | 36932 ft | 462 kts | 114° |
| 2026-05-06 04:00 | 19.20675 | -101.02215 | 36918 ft | 462 kts | 114° |
| 2026-05-06 04:01 | 19.18204 | -100.95935 | 36906 ft | 462 kts | 114° |
| 2026-05-06 04:01 | 19.15727 | -100.89651 | 36895 ft | 463 kts | 114° |
| 2026-05-06 04:02 | 19.13246 | -100.83370 | 36890 ft | 463 kts | 114° |
| 2026-05-06 04:02 | 19.10769 | -100.77089 | 36882 ft | 463 kts | 114° |
| 2026-05-06 04:03 | 19.08281 | -100.70807 | 36878 ft | 463 kts | 114° |
| 2026-05-06 04:03 | 19.05793 | -100.64533 | 36878 ft | 463 kts | 114° |
| 2026-05-06 04:04 | 19.03725 | -100.59323 | 36882 ft | 463 kts | 114° |
| 2026-05-06 04:04 | 19.00808 | -100.51995 | 36890 ft | 463 kts | 114° |
| 2026-05-06 04:05 | 18.98737 | -100.46785 | 36900 ft | 463 kts | 114° |
| 2026-05-06 04:05 | 18.96247 | -100.40508 | 36908 ft | 463 kts | 114° |
| 2026-05-06 04:06 | 18.93756 | -100.34246 | 36919 ft | 463 kts | 114° |
| 2026-05-06 04:06 | 18.91263 | -100.28015 | 36934 ft | 463 kts | 114° |
| 2026-05-06 04:07 | 18.88761 | -100.21754 | 36948 ft | 462 kts | 114° |
| 2026-05-06 04:07 | 18.86259 | -100.15497 | 36880 ft | 463 kts | 114° |
| 2026-05-06 04:08 | 18.85004 | -100.12373 | 36629 ft | 462 kts | 114° |
| 2026-05-06 04:08 | 18.83745 | -100.09240 | 36045 ft | 466 kts | 114° |
| 2026-05-06 04:08 | 18.82468 | -100.06062 | 35120 ft | 475 kts | 114° |
| 2026-05-06 04:08 | 18.81165 | -100.02816 | 34178 ft | 484 kts | 114° |
| 2026-05-06 04:09 | 18.79843 | -99.99518 | 33137 ft | 488 kts | 114° |
| 2026-05-06 04:09 | 18.78535 | -99.96250 | 31939 ft | 481 kts | 115° |
| 2026-05-06 04:09 | 18.77245 | -99.93033 | 31159 ft | 469 kts | 115° |
| 2026-05-06 04:09 | 18.75960 | -99.89829 | 30493 ft | 467 kts | 114° |
| 2026-05-06 04:10 | 18.74999 | -99.86549 | 29746 ft | 469 kts | 103° |
| 2026-05-06 04:10 | 18.74650 | -99.83175 | 29016 ft | 470 kts | 92° |
| 2026-05-06 04:10 | 18.74907 | -99.79749 | 28284 ft | 469 kts | 82° |
| 2026-05-06 04:10 | 18.75766 | -99.76428 | 27532 ft | 456 kts | 70° |
| 2026-05-06 04:11 | 18.77011 | -99.73447 | 26845 ft | 447 kts | 67° |
| 2026-05-06 04:11 | 18.78290 | -99.70468 | 26137 ft | 445 kts | 67° |
| 2026-05-06 04:11 | 18.79574 | -99.67460 | 25428 ft | 443 kts | 67° |
| 2026-05-06 04:11 | 18.80832 | -99.64495 | 24729 ft | 442 kts | 67° |
| 2026-05-06 04:12 | 18.82079 | -99.61538 | 24120 ft | 438 kts | 68° |
| 2026-05-06 04:12 | 18.83306 | -99.58629 | 23534 ft | 428 kts | 67° |
| 2026-05-06 04:12 | 18.84505 | -99.55793 | 22539 ft | 416 kts | 67° |
| 2026-05-06 04:12 | 18.85647 | -99.53100 | 21968 ft | 400 kts | 67° |
| 2026-05-06 04:13 | 18.86774 | -99.50443 | 21338 ft | 393 kts | 67° |
| 2026-05-06 04:13 | 18.87901 | -99.47781 | 20709 ft | 392 kts | 67° |
| 2026-05-06 04:13 | 18.89010 | -99.45157 | 20089 ft | 392 kts | 67° |
| 2026-05-06 04:13 | 18.90120 | -99.42527 | 19470 ft | 391 kts | 67° |
| 2026-05-06 04:14 | 18.91229 | -99.39893 | 18662 ft | 396 kts | 67° |
| 2026-05-06 04:14 | 18.92343 | -99.37253 | 18294 ft | 388 kts | 66° |
| 2026-05-06 04:14 | 18.93419 | -99.34708 | 18171 ft | 371 kts | 66° |
| 2026-05-06 04:14 | 18.94447 | -99.32272 | 18041 ft | 356 kts | 66° |
| 2026-05-06 04:15 | 18.95436 | -99.29928 | 17911 ft | 342 kts | 66° |
| 2026-05-06 04:15 | 18.96389 | -99.27670 | 17786 ft | 330 kts | 66° |
| 2026-05-06 04:15 | 18.97563 | -99.25634 | 17664 ft | 321 kts | 52° |
| 2026-05-06 04:15 | 18.99010 | -99.23878 | 17535 ft | 312 kts | 50° |
| 2026-05-06 04:16 | 19.00419 | -99.22187 | 17220 ft | 302 kts | 50° |
| 2026-05-06 04:16 | 19.01799 | -99.20526 | 16670 ft | 299 kts | 50° |
| 2026-05-06 04:16 | 19.03153 | -99.18894 | 16322 ft | 293 kts | 50° |
| 2026-05-06 04:16 | 19.04494 | -99.17275 | 16040 ft | 292 kts | 50° |
| 2026-05-06 04:17 | 19.05838 | -99.15652 | 15764 ft | 294 kts | 50° |
| 2026-05-06 04:17 | 19.07181 | -99.14030 | 15478 ft | 293 kts | 50° |
| 2026-05-06 04:17 | 19.08092 | -99.12927 | 15300 ft | 293 kts | 50° |
| 2026-05-06 04:17 | 19.08988 | -99.11834 | 15129 ft | 292 kts | 50° |
| 2026-05-06 04:18 | 19.10320 | -99.10217 | 14868 ft | 292 kts | 50° |
| 2026-05-06 04:18 | 19.11655 | -99.08601 | 14612 ft | 291 kts | 50° |
| 2026-05-06 04:18 | 19.12990 | -99.06987 | 14353 ft | 291 kts | 50° |
| 2026-05-06 04:18 | 19.14323 | -99.05374 | 14089 ft | 291 kts | 50° |
| 2026-05-06 04:19 | 19.15672 | -99.03783 | 13907 ft | 288 kts | 44° |
| 2026-05-06 04:19 | 19.17379 | -99.02767 | 13807 ft | 283 kts | 13° |
| 2026-05-06 04:19 | 19.19319 | -99.02879 | 13549 ft | 286 kts | 340° |
| 2026-05-06 04:19 | 19.20998 | -99.03981 | 13189 ft | 282 kts | 321° |
| 2026-05-06 04:20 | 19.22427 | -99.05348 | 12864 ft | 272 kts | 316° |
| 2026-05-06 04:20 | 19.23729 | -99.06746 | 12544 ft | 262 kts | 314° |
| 2026-05-06 04:20 | 19.24859 | -99.08221 | 12200 ft | 255 kts | 303° |
| 2026-05-06 04:20 | 19.25855 | -99.09769 | 11751 ft | 254 kts | 306° |
| 2026-05-06 04:21 | 19.26887 | -99.11272 | 11333 ft | 251 kts | 307° |
| 2026-05-06 04:21 | 19.27924 | -99.12731 | 11015 ft | 244 kts | 307° |
| 2026-05-06 04:21 | 19.28939 | -99.14137 | 10733 ft | 236 kts | 307° |
| 2026-05-06 04:21 | 19.29904 | -99.15470 | 10538 ft | 218 kts | 307° |
| 2026-05-06 04:22 | 19.30787 | -99.16688 | 10416 ft | 200 kts | 308° |
| 2026-05-06 04:22 | 19.31635 | -99.17856 | 10317 ft | 203 kts | 309° |
| 2026-05-06 04:22 | 19.32701 | -99.18855 | 9957 ft | 209 kts | 330° |
| 2026-05-06 04:23 | 19.35530 | -99.19206 | 9367 ft | 200 kts | 16° |
| 2026-05-06 04:23 | 19.36717 | -99.18594 | 9340 ft | 180 kts | 36° |
| 2026-05-06 04:23 | 19.37552 | -99.17716 | 9318 ft | 163 kts | 54° |
| 2026-05-06 04:23 | 19.38130 | -99.16728 | 9291 ft | 153 kts | 59° |
| 2026-05-06 04:24 | 19.38666 | -99.15774 | 9200 ft | 149 kts | 58° |
| 2026-05-06 04:24 | 19.39190 | -99.14840 | 9090 ft | 146 kts | 58° |
| 2026-05-06 04:24 | 19.39709 | -99.13917 | 8928 ft | 146 kts | 58° |
| 2026-05-06 04:24 | 19.40244 | -99.13015 | 8727 ft | 143 kts | 52° |
| 2026-05-06 04:25 | 19.40883 | -99.12212 | 8467 ft | 143 kts | 47° |
| 2026-05-06 04:25 | 19.41487 | -99.11381 | 8122 ft | 141 kts | 57° |
| 2026-05-06 04:25 | 19.41960 | -99.10473 | 7798 ft | 141 kts | 59° |
| 2026-05-06 04:25 | 19.42450 | -99.09582 | 7519 ft | 139 kts | 55° |
| 2026-05-06 04:26 | 19.42777 | -99.09006 | 7410 ft | 138 kts | 55° |
| 2026-05-06 04:26 | 19.43068 | -99.08522 | 7338 ft | 136 kts | 51° |
| 2026-05-06 04:26 | 19.43489 | -99.07724 | 7304 ft | 100 kts | 53° |
| 2026-05-06 04:26 | 19.43707 | -99.07366 | 7303 ft | 29 kts | 60° |
| 2026-05-06 04:27 | 19.43789 | -99.07236 | 7303 ft | 12 kts | 26° |
| 2026-05-06 04:27 | 19.43868 | -99.07263 | 7303 ft | 10 kts | 316° |
| 2026-05-06 04:27 | 19.43933 | -99.07309 | 7303 ft | 13 kts | 359° |
| 2026-05-06 04:27 | 19.43997 | -99.07228 | 7303 ft | 17 kts | 59° |
| 2026-05-06 04:28 | 19.44066 | -99.07106 | 7303 ft | 17 kts | 60° |
| 2026-05-06 04:28 | 19.44119 | -99.07088 | 7303 ft | 10 kts | 323° |
| 2026-05-06 04:28 | 19.44172 | -99.07125 | 7303 ft | 0 kts | 329° |
| 2026-05-06 04:28 | 19.44174 | -99.07126 | 7303 ft | 0 kts | 329° |